Time;durP1;ratioP1;P1;durP2;ratioP2;P2;SDS_P1;SDS_P2;PMS_P1;PMS_P2;Temp;Humidity;BMP_temperature;BMP_pressure;BME280_temperature;BME280_humidity;BME280_pressure;Samples;Min_cycle;Max_cycle;Signal;HPM_P1;HPM_P2
2022/06/22 00:00:19;;;;;;;3.05;2.40;;;;;;;15.84;100.00;97477.84;1527522;94;21174;-76
2022/06/22 00:02:47;;;;;;;3.90;2.90;;;;;;;15.86;100.00;97453.31;1527848;94;21067;-77
2022/06/22 00:05:17;;;;;;;3.25;2.70;;;;;;;15.84;100.00;97426.08;1527774;94;21075;-75
2022/06/22 00:07:54;;;;;;;3.70;2.50;;;;;;;15.82;100.00;97405.91;1527810;94;21052;-76
2022/06/22 00:10:40;;;;;;;5.37;2.55;;;;;;;15.83;100.00;97377.59;1503134;95;21154;-77
2022/06/22 00:13:16;;;;;;;3.80;2.62;;;;;;;15.84;100.00;97373.76;1503493;95;21071;-77
2022/06/22 00:15:59;;;;;;;2.80;2.58;;;;;;;15.87;100.00;97356.06;1487679;95;21078;-78
2022/06/22 00:18:34;;;;;;;3.85;2.62;;;;;;;15.87;100.00;97334.27;1487717;96;21042;-78
2022/06/22 00:21:04;;;;;;;4.62;2.50;;;;;;;15.86;100.00;97312.19;1483466;95;21122;-76
2022/06/22 00:23:43;;;;;;;3.92;2.25;;;;;;;15.86;100.00;97296.64;1481549;97;21075;-77
2022/06/22 00:26:22;;;;;;;2.60;2.40;;;;;;;15.86;100.00;97271.31;1481251;97;21043;-78
2022/06/22 00:29:06;;;;;;;4.22;2.60;;;;;;;15.85;100.00;97241.90;1527423;93;21058;-78
2022/06/22 00:31:53;;;;;;;3.40;2.75;;;;;;;15.84;100.00;97207.56;1550756;93;21141;-77
2022/06/22 00:34:24;;;;;;;4.00;2.80;;;;;;;15.84;100.00;97174.06;1549172;93;21106;-78
2022/06/22 00:37:16;;;;;;;3.70;2.90;;;;;;;15.82;100.00;97123.92;1550722;93;21145;-77
2022/06/22 00:39:50;;;;;;;3.30;2.72;;;;;;;15.83;100.00;97106.50;1544260;92;21607;-77
2022/06/22 00:42:29;;;;;;;3.08;2.77;;;;;;;15.85;100.00;97081.70;1621783;87;21026;-78
2022/06/22 00:45:06;;;;;;;4.12;2.72;;;;;;;15.85;100.00;97059.91;1611905;89;21069;-77
2022/06/22 00:47:57;;;;;;;3.05;2.72;;;;;;;15.86;100.00;97042.45;1638964;88;21114;-77
2022/06/22 00:50:55;;;;;;;3.60;3.00;;;;;;;15.86;100.00;97033.73;1611659;87;21041;-77
2022/06/22 00:53:40;;;;;;;4.30;2.50;;;;;;;15.87;100.00;97036.73;1620275;89;21076;-77
2022/06/22 00:56:38;;;;;;;5.08;3.10;;;;;;;15.87;100.00;97068.62;1620419;87;21028;-77
2022/06/22 00:59:41;;;;;;;2.67;2.47;;;;;;;15.80;100.00;97059.37;1569010;90;21074;-77
2022/06/22 01:02:43;;;;;;;6.40;2.67;;;;;;;15.77;100.00;97049.02;1468244;96;21131;-78
2022/06/22 01:05:22;;;;;;;3.10;2.72;;;;;;;15.74;100.00;97035.92;1497702;96;21157;-77
2022/06/22 01:08:03;;;;;;;3.20;2.67;;;;;;;15.72;100.00;97047.64;1505968;95;21583;-77
2022/06/22 01:10:50;;;;;;;4.53;3.30;;;;;;;15.71;100.00;97046.03;1483434;97;21177;-77
2022/06/22 01:13:31;;;;;;;7.97;4.45;;;;;;;15.70;100.00;97035.66;1460040;98;21140;-78
2022/06/22 01:16:19;;;;;;;14.07;6.70;;;;;;;15.65;100.00;97020.72;1475326;97;21171;-77
2022/06/22 01:18:51;;;;;;;18.48;8.85;;;;;;;15.65;100.00;96997.58;1437920;100;21147;-77
2022/06/22 01:21:32;;;;;;;16.87;8.33;;;;;;;15.64;100.00;96949.63;1436770;100;21110;-76
2022/06/22 01:24:19;;;;;;;18.98;9.20;;;;;;;15.63;100.00;96908.50;1437362;96;21717;-75
2022/06/22 01:27:20;;;;;;;17.50;8.45;;;;;;;15.66;100.00;96849.95;1437241;100;21203;-76
2022/06/22 01:29:55;;;;;;;15.88;7.70;;;;;;;15.68;100.00;96821.32;1437160;100;21171;-76
2022/06/22 01:32:28;;;;;;;15.98;8.00;;;;;;;15.69;100.00;96795.72;1437089;100;21106;-78
2022/06/22 01:34:58;;;;;;;15.58;7.75;;;;;;;15.73;100.00;96821.84;1438375;99;21595;-76
2022/06/22 01:37:28;;;;;;;14.90;7.83;;;;;;;15.74;100.00;96828.41;1450687;99;21139;-75
2022/06/22 01:40:34;;;;;;;16.67;8.05;;;;;;;15.76;100.00;96825.41;1468686;97;21105;-76
2022/06/22 01:43:11;;;;;;;16.05;7.78;;;;;;;15.78;100.00;96831.37;1459866;97;21095;-76
2022/06/22 01:45:55;;;;;;;16.25;7.97;;;;;;;15.78;100.00;96836.83;1459044;98;21163;-76
2022/06/22 01:48:33;;;;;;;16.27;8.85;;;;;;;15.78;100.00;96831.94;1458995;94;21146;-76
2022/06/22 01:51:25;;;;;;;18.32;10.10;;;;;;;15.75;100.00;96825.93;1458968;98;21127;-77
2022/06/22 01:54:12;;;;;;;22.30;11.60;;;;;;;15.73;100.00;96849.08;1459015;95;21838;-76
2022/06/22 01:56:50;;;;;;;21.15;11.10;;;;;;;15.66;100.00;96845.30;1451556;98;21585;-76
2022/06/22 01:59:45;;;;;;;21.73;11.20;;;;;;;15.62;100.00;96846.98;1433992;94;21108;-76
2022/06/22 02:02:19;;;;;;;20.82;11.10;;;;;;;15.61;100.00;96841.25;1434028;100;21697;-77
2022/06/22 02:05:19;;;;;;;20.80;10.10;;;;;;;15.61;100.00;96856.23;1417640;99;21659;-77
2022/06/22 02:08:03;;;;;;;21.10;10.20;;;;;;;15.59;100.00;96854.89;1399008;103;21157;-77
2022/06/22 02:10:54;;;;;;;18.65;9.18;;;;;;;15.56;100.00;96863.06;1414463;101;21607;-78
2022/06/22 02:13:59;;;;;;;17.85;8.83;;;;;;;15.55;100.00;96875.87;1423904;96;21184;-77
2022/06/22 02:16:46;;;;;;;14.75;7.62;;;;;;;15.54;100.00;96878.88;1459995;98;21012;-77
2022/06/22 02:19:15;;;;;;;13.83;6.78;;;;;;;15.52;100.00;96879.14;1484053;96;21144;-77
2022/06/22 02:21:52;;;;;;;11.12;6.50;;;;;;;15.51;100.00;96886.23;1490581;96;21878;-76
2022/06/22 02:24:30;;;;;;;13.68;6.92;;;;;;;15.49;100.00;96880.25;1518456;93;21189;-78
2022/06/22 02:27:18;;;;;;;13.40;6.55;;;;;;;15.49;100.00;96872.09;1512448;93;21094;-77
2022/06/22 02:29:51;;;;;;;14.65;6.53;;;;;;;15.48;100.00;96865.84;1481237;97;21124;-78
2022/06/22 02:32:22;;;;;;;;;;;;;;;15.45;100.00;96865.02;1483673;97;21120;-78
2022/06/22 02:34:51;;;;;;;10.75;5.78;;;;;;;15.44;100.00;96862.58;1458611;98;20188;-78
2022/06/22 02:37:19;;;;;;;8.95;5.28;;;;;;;15.40;100.00;96854.16;1497751;95;21120;-77
2022/06/22 02:39:54;;;;;;;11.40;5.30;;;;;;;15.36;100.00;96853.91;1491660;94;21106;-77
2022/06/22 02:45:10;;;;;;;10.43;5.53;;;;;;;15.30;100.00;96844.15;1530799;93;21101;-78
2022/06/22 02:48:07;;;;;;;9.83;5.70;;;;;;;15.30;100.00;96843.34;1530739;93;21144;-78
2022/06/22 02:50:49;;;;;;;11.43;5.62;;;;;;;15.27;100.00;96840.62;1530993;94;21105;-78
2022/06/22 02:53:28;;;;;;;14.60;6.17;;;;;;;15.23;100.00;96830.03;1512630;95;21106;-77
2022/06/22 02:55:55;;;;;;;12.85;5.92;;;;;;;15.18;100.00;96822.69;1499427;95;21643;-77
2022/06/22 02:58:33;;;;;;;12.73;5.95;;;;;;;15.18;100.00;96825.41;1499787;96;21606;-77
2022/06/22 03:01:08;;;;;;;13.05;6.08;;;;;;;15.16;100.00;96816.72;1511817;93;21131;-77
2022/06/22 03:03:35;;;;;;;9.53;5.28;;;;;;;15.15;100.00;96826.52;1519592;94;21131;-78
2022/06/22 03:06:02;;;;;;;10.93;5.65;;;;;;;15.14;100.00;96828.99;1497816;96;21157;-78
2022/06/22 03:08:29;;;;;;;9.15;5.65;;;;;;;15.14;100.00;96824.36;1521413;94;21109;-78
2022/06/22 03:11:03;;;;;;;9.45;5.28;;;;;;;15.13;100.00;96830.87;1500484;94;21187;-78
2022/06/22 03:13:52;;;;;;;7.37;5.03;;;;;;;15.12;100.00;96827.91;1471640;97;21677;-78
2022/06/22 03:16:24;;;;;;;10.50;5.75;;;;;;;15.13;100.00;96812.38;1428251;99;21143;-78
2022/06/22 03:18:51;;;;;;;9.23;5.40;;;;;;;15.11;100.00;96823.55;1425706;101;21136;-79
2022/06/22 03:21:18;;;;;;;9.33;5.25;;;;;;;15.11;100.00;96823.55;1425592;101;21128;-78
2022/06/22 03:23:53;;;;;;;10.63;5.72;;;;;;;15.11;100.00;96821.38;1425599;101;21132;-79
2022/06/22 03:26:26;;;;;;;10.32;5.70;;;;;;;15.10;100.00;96818.38;1425763;101;21051;-78
2022/06/22 03:29:26;;;;;;;12.25;5.47;;;;;;;15.10;100.00;96814.30;1438242;99;21128;-78
2022/06/22 03:32:00;;;;;;;10.28;5.42;;;;;;;15.09;100.00;96824.38;1499770;95;21219;-77
2022/06/22 03:34:34;;;;;;;12.25;5.90;;;;;;;15.09;100.00;96824.93;1500521;96;21636;-78
2022/06/22 03:37:13;;;;;;;11.00;5.60;;;;;;;15.09;100.00;96824.93;1481672;96;21131;-78
2022/06/22 03:39:44;;;;;;;10.80;5.30;;;;;;;15.09;100.00;96823.57;1507424;95;21133;-80
2022/06/22 03:42:20;;;;;;;8.60;5.28;;;;;;;15.12;100.00;96825.19;1507392;95;21112;-78
2022/06/22 03:45:04;;;;;;;9.85;5.03;;;;;;;15.14;100.00;96816.19;1488895;95;21656;-77
2022/06/22 03:47:43;;;;;;;10.85;5.45;;;;;;;15.13;100.00;96819.19;1507287;95;21156;-79
2022/06/22 03:50:15;;;;;;;7.30;5.00;;;;;;;15.12;100.00;96825.19;1507543;95;21060;-78
2022/06/22 03:52:50;;;;;;;10.75;4.90;;;;;;;15.13;100.00;96817.83;1523078;94;21654;-77
2022/06/22 03:55:20;;;;;;;8.20;4.85;;;;;;;15.13;100.00;96817.83;1524364;93;21197;-78
2022/06/22 03:57:49;;;;;;;8.60;5.05;;;;;;;15.13;100.00;96818.63;1529836;93;21077;-78
2022/06/22 04:00:16;;;;;;;9.78;4.95;;;;;;;15.13;100.00;96824.63;1509472;94;21061;-78
2022/06/22 04:02:43;;;;;;;6.85;5.20;;;;;;;15.13;100.00;96797.42;1499329;92;21586;-79
2022/06/22 04:05:20;;;;;;;6.97;4.35;;;;;;;15.11;100.00;96798.25;1573063;90;21063;-78
2022/06/22 04:07:47;;;;;;;7.80;4.40;;;;;;;15.10;100.00;96801.53;1573080;91;21050;-80
2022/06/22 04:10:39;;;;;;;7.70;4.30;;;;;;;15.12;100.00;96805.30;1573186;91;21544;-79
2022/06/22 04:13:13;;;;;;;6.65;4.05;;;;;;;15.13;100.00;96805.58;1527487;92;21100;-79
2022/06/22 04:16:00;;;;;;;4.75;3.62;;;;;;;15.13;100.00;96813.19;1569051;91;21581;-78
2022/06/22 04:18:32;;;;;;;6.12;3.30;;;;;;;15.14;100.00;96818.91;1551983;92;21529;-79
2022/06/22 04:21:02;;;;;;;12.20;3.92;;;;;;;15.19;100.00;96817.53;1525565;94;21085;-79
2022/06/22 04:23:46;;;;;;;6.53;3.70;;;;;;;15.24;100.00;96819.39;1541694;93;21198;-79
2022/06/22 04:26:24;;;;;;;5.37;3.35;;;;;;;15.35;100.00;96817.43;1541951;93;21100;-78
2022/06/22 04:29:00;;;;;;;5.85;3.37;;;;;;;15.48;100.00;96824.19;1505979;95;21108;-79
2022/06/22 04:31:31;;;;;;;6.20;3.20;;;;;;;15.64;100.00;96828.99;1506036;95;21107;-78
2022/06/22 04:34:06;;;;;;;6.17;3.35;;;;;;;15.83;100.00;96829.98;1461393;98;21153;-79
2022/06/22 04:36:44;;;;;;;5.35;3.17;;;;;;;15.98;100.00;96845.39;1377628;104;21256;-79
2022/06/22 04:39:34;;;;;;;5.33;2.92;;;;;;;16.18;100.00;96865.41;1385235;104;21178;-79
2022/06/22 04:42:01;;;;;;;4.37;3.00;;;;;;;16.40;100.00;96888.14;1369419;105;21166;-79
2022/06/22 04:44:32;;;;;;;5.25;2.80;;;;;;;16.68;100.00;96915.98;1375558;104;21236;-80
2022/06/22 04:47:03;;;;;;;5.00;3.00;;;;;;;16.88;100.00;96947.73;1369781;105;21632;-82
2022/06/22 04:49:36;;;;;;;6.05;3.08;;;;;;;17.09;100.00;96988.49;1347401;105;21170;-80
2022/06/22 04:52:15;;;;;;;4.47;2.90;;;;;;;17.34;100.00;97035.77;1345754;105;21667;-80
2022/06/22 04:54:42;;;;;;;2.60;2.40;;;;;;;17.56;100.00;97102.18;1345850;107;21177;-79
2022/06/22 04:57:23;;;;;;;5.03;3.10;;;;;;;17.85;100.00;97174.59;1330718;108;21132;-78
2022/06/22 04:59:52;;;;;;;5.08;2.40;;;;;;;18.09;100.00;97258.59;1310733;110;21172;-79
2022/06/22 05:02:21;;;;;;;4.53;2.87;;;;;;;18.33;100.00;97357.11;1323286;108;21638;-78
2022/06/22 05:04:51;;;;;;;5.53;2.67;;;;;;;18.48;100.00;97438.22;1323714;108;21184;-77
2022/06/22 05:07:36;;;;;;;4.53;2.62;;;;;;;18.57;100.00;97504.38;1323073;108;21185;-79
2022/06/22 05:10:24;;;;;;;8.38;2.50;;;;;;;18.72;100.00;97582.00;1324004;107;21692;-80
2022/06/22 05:13:18;;;;;;;3.20;2.70;;;;;;;18.87;100.00;97638.03;1325016;107;21210;-83
2022/06/22 05:15:46;;;;;;;18.62;13.00;;;;;;;19.00;100.00;97669.98;1303473;110;21126;-82
2022/06/22 05:18:28;;;;;;;8.58;5.20;;;;;;;19.23;100.00;97691.21;1300961;110;21203;-81
2022/06/22 05:21:21;;;;;;;4.65;3.50;;;;;;;19.43;100.00;97697.08;1297574;110;21290;-81
2022/06/22 05:23:53;;;;;;;7.03;3.30;;;;;;;19.57;100.00;97751.26;1289230;111;21741;-86
2022/06/22 05:26:23;;;;;;;6.08;2.67;;;;;;;19.69;100.00;97793.64;1301937;107;21231;-82
2022/06/22 05:29:10;;;;;;;5.53;3.22;;;;;;;19.88;100.00;97808.89;1343268;107;21145;-81
2022/06/22 05:31:42;;;;;;;8.25;3.17;;;;;;;20.02;100.00;97841.95;1351489;104;21203;-84
2022/06/22 05:34:17;;;;;;;7.62;4.53;;;;;;;20.13;100.00;97866.56;1445657;98;21111;-84
2022/06/22 05:36:48;;;;;;;6.35;2.60;;;;;;;20.06;100.00;97883.34;1477298;94;21695;-78
2022/06/22 05:39:15;;;;;;;3.05;2.77;;;;;;;20.02;100.00;97905.03;1480392;97;21064;-80
2022/06/22 05:41:44;;;;;;;8.70;3.20;;;;;;;20.00;100.00;97905.87;1477259;97;21140;-76
2022/06/22 05:44:13;;;;;;;34.60;26.07;;;;;;;20.01;100.00;97919.03;1477605;97;21058;-78
2022/06/22 05:46:42;;;;;;;10.25;5.72;;;;;;;20.02;100.00;97942.06;1484978;97;21088;-76
2022/06/22 05:49:15;;;;;;;8.43;3.98;;;;;;;20.13;100.00;97938.70;1502004;96;21105;-81
2022/06/22 05:52:02;;;;;;;25.95;16.90;;;;;;;20.35;100.00;97922.38;1484793;97;21099;-80
2022/06/22 05:54:41;;;;;;;15.13;7.47;;;;;;;20.65;100.00;97908.97;1484841;97;21092;-79
2022/06/22 05:57:51;;;;;;;4.90;3.40;;;;;;;20.99;100.00;97907.52;1532517;93;21102;-80
2022/06/22 06:00:26;;;;;;;5.87;3.90;;;;;;;21.34;100.00;97910.97;1540982;93;21584;-81
2022/06/22 06:03:13;;;;;;;5.72;3.40;;;;;;;21.71;100.00;97928.69;1543759;92;21176;-80
2022/06/22 06:05:48;;;;;;;5.12;3.25;;;;;;;21.98;100.00;97936.28;1543644;93;21130;-81
2022/06/22 06:08:23;;;;;;;4.72;3.62;;;;;;;22.25;100.00;97951.30;1544088;93;21114;-80
2022/06/22 06:10:50;;;;;;;10.68;6.20;;;;;;;22.45;100.00;97952.13;1521988;94;21149;-81
2022/06/22 06:13:34;;;;;;;7.20;4.85;;;;;;;22.61;100.00;97971.44;1522357;93;21117;-83
2022/06/22 06:16:02;;;;;;;8.28;4.78;;;;;;;22.74;100.00;97976.16;1546401;92;21111;-79
2022/06/22 06:18:34;;;;;;;7.75;5.22;;;;;;;22.86;100.00;97988.63;1546284;93;21146;-79
2022/06/22 06:21:18;;;;;;;11.10;5.08;;;;;;;22.89;100.00;97984.70;1543918;93;21614;-78
2022/06/22 06:24:00;;;;;;;10.60;5.47;;;;;;;22.67;100.00;97996.38;1544045;93;21580;-79
2022/06/22 06:29:39;;;;;;;12.00;5.50;;;;;;;22.36;100.00;97947.31;1650411;87;21083;-77
2022/06/22 06:32:29;;;;;;;7.15;4.97;;;;;;;22.30;100.00;97960.88;1620295;88;21084;-78
2022/06/22 06:35:02;;;;;;;7.60;5.15;;;;;;;22.27;100.00;97958.72;1622650;88;21033;-80
2022/06/22 06:38:23;;;;;;;9.53;4.28;;;;;;;22.37;100.00;97948.13;1622892;88;21073;-79
2022/06/22 06:41:19;;;;;;;4.50;4.10;;;;;;;22.22;100.00;97968.40;1621732;87;21080;-80
2022/06/22 06:43:56;;;;;;;8.70;4.15;;;;;;;21.70;100.00;97977.92;1622633;88;21060;-77
2022/06/22 06:46:51;;;;;;;6.60;3.80;;;;;;;21.55;100.00;97951.44;1622628;88;21080;-76
2022/06/22 06:49:24;;;;;;;3.65;3.12;;;;;;;21.83;100.00;97923.30;1622654;88;21033;-79
2022/06/22 06:52:04;;;;;;;3.77;2.95;;;;;;;22.17;100.00;97951.98;1622780;88;21115;-78
2022/06/22 06:54:53;;;;;;;3.98;2.90;;;;;;;22.48;100.00;97970.80;1577351;90;21049;-78
2022/06/22 06:57:20;;;;;;;4.00;2.80;;;;;;;22.82;100.00;97983.47;1624248;88;21080;-79
2022/06/22 06:59:52;;;;;;;4.62;2.60;;;;;;;23.18;100.00;98107.75;1607946;89;21120;-80
2022/06/22 07:02:24;;;;;;;5.15;2.70;;;;;;;23.29;100.00;98291.75;1633957;88;21122;-79
2022/06/22 07:04:51;;;;;;;8.15;2.92;;;;;;;23.31;100.00;98331.69;1624320;88;21643;-78
2022/06/22 07:07:45;;;;;;;2.92;2.52;;;;;;;23.33;100.00;98334.72;1624152;88;21109;-77
2022/06/22 07:10:19;;;;;;;3.10;2.70;;;;;;;23.45;100.00;98340.05;1597210;90;21665;-77
2022/06/22 07:12:57;;;;;;;7.08;2.85;;;;;;;23.57;100.00;98349.81;1583298;89;21171;-76
2022/06/22 07:15:34;;;;;;;22.30;17.20;;;;;;;23.71;100.00;98350.73;1580229;91;21224;-76
2022/06/22 07:18:20;;;;;;;8.88;4.85;;;;;;;23.80;100.00;98350.34;1580990;91;21681;-78
2022/06/22 07:20:52;;;;;;;11.43;5.08;;;;;;;23.81;100.00;98343.69;1555511;92;21144;-78
2022/06/22 07:23:35;;;;;;;6.80;3.20;;;;;;;24.03;100.00;98334.80;1553570;92;21081;-80
2022/06/22 07:26:11;;;;;;;5.00;2.55;;;;;;;24.40;100.00;98329.45;1552338;92;21239;-81
2022/06/22 07:28:53;;;;;;;2.72;2.50;;;;;;;24.74;100.00;98331.09;1504198;94;21170;-77
2022/06/22 07:31:30;;;;;;;4.10;2.70;;;;;;;24.76;100.00;98339.89;1458572;97;21275;-78
2022/06/22 07:34:02;;;;;;;8.78;3.40;;;;;;;24.59;100.00;98343.24;1397463;102;21078;-80
2022/06/22 07:36:45;;;;;;;3.90;3.10;;;;;;;24.49;100.00;98337.33;1398301;102;21148;-75
2022/06/22 07:39:26;;;;;;;8.18;5.45;;;;;;;24.54;100.00;98337.81;1374917;103;21392;-81
2022/06/22 07:41:53;;;;;;;4.72;2.90;;;;;;;24.63;100.00;98337.38;1368262;105;21263;-77
2022/06/22 07:44:29;;;;;;;3.08;2.20;;;;;;;24.58;100.00;98343.00;1370653;103;21704;-82
2022/06/22 07:47:18;;;;;;;2.30;2.10;;;;;;;24.39;100.00;98353.51;1352553;106;21194;-82
2022/06/22 07:49:53;;;;;;;9.48;2.80;;;;;;;23.93;96.65;98357.61;1352473;106;21163;-79
2022/06/22 07:52:29;;;;;;;5.62;2.30;;;;;;;23.75;98.78;98368.33;1352668;106;21268;-81
2022/06/22 07:55:28;;;;;;;4.58;2.40;;;;;;;23.81;100.00;98361.63;1347445;104;21186;-76
2022/06/22 07:58:07;;;;;;;4.33;2.27;;;;;;;23.92;100.00;98361.47;1287861;110;21207;-80
2022/06/22 08:00:34;;;;;;;4.67;2.27;;;;;;;24.04;100.00;98349.41;1274453;109;21732;-76
2022/06/22 08:03:14;;;;;;;4.55;2.27;;;;;;;24.03;100.00;98349.17;1306735;109;21183;-78
2022/06/22 08:05:42;;;;;;;3.25;2.20;;;;;;;24.07;99.76;98351.58;1306292;110;21706;-75
2022/06/22 08:08:28;;;;;;;5.20;2.02;;;;;;;24.00;95.18;98356.09;1306233;110;21213;-75
2022/06/22 08:11:00;;;;;;;7.85;3.17;;;;;;;23.90;94.88;98361.77;1372510;104;21178;-75
2022/06/22 08:13:35;;;;;;;11.45;2.55;;;;;;;23.98;97.78;98361.09;1353328;106;21110;-79
2022/06/22 08:16:11;;;;;;;5.00;1.87;;;;;;;24.02;97.12;98369.60;1305260;109;21182;-76
2022/06/22 08:18:38;;;;;;;6.22;2.12;;;;;;;23.84;91.19;98371.27;1301900;110;21233;-76
2022/06/22 08:21:05;;;;;;;3.62;2.20;;;;;;;23.66;86.03;98386.10;1301458;110;21375;-75
2022/06/22 08:23:35;;;;;;;3.75;1.90;;;;;;;23.51;89.54;98390.45;1286227;111;21308;-76
2022/06/22 08:26:05;;;;;;;3.20;2.15;;;;;;;23.31;87.86;98386.02;1290705;111;21188;-78
2022/06/22 08:28:34;;;;;;;4.00;3.35;;;;;;;22.95;90.96;98391.94;1316265;109;21164;-79
2022/06/22 08:31:01;;;;;;;4.00;1.70;;;;;;;22.84;96.69;98391.77;1330541;107;21179;-84
2022/06/22 08:33:42;;;;;;;4.10;2.00;;;;;;;22.69;94.33;98394.95;1339295;107;21179;-85
2022/06/22 08:36:21;;;;;;;2.17;1.65;;;;;;;22.56;92.89;98394.27;1363409;104;21633;-82
2022/06/22 08:38:56;;;;;;;3.05;1.65;;;;;;;22.36;90.22;98390.59;1356518;104;21148;-81
2022/06/22 08:42:00;;;;;;;3.05;2.02;;;;;;;22.17;91.30;98375.86;1409853;101;21167;-74
2022/06/22 08:44:50;;;;;;;2.80;1.80;;;;;;;22.09;94.59;98392.41;1467329;96;21117;-74
2022/06/22 08:47:34;;;;;;;3.92;2.10;;;;;;;21.93;99.29;98389.52;1456357;99;21659;-78
2022/06/22 08:50:42;;;;;;;2.05;1.85;;;;;;;21.79;100.00;98381.88;1458416;97;21115;-74
2022/06/22 08:53:38;;;;;;;5.35;2.40;;;;;;;21.70;100.00;98371.78;1456850;98;21218;-75
2022/06/22 08:56:14;;;;;;;5.97;2.30;;;;;;;21.66;100.00;98374.28;1457652;98;21142;-78
2022/06/22 08:58:58;;;;;;;2.12;1.92;;;;;;;21.64;100.00;98378.41;1458696;98;21122;-75
2022/06/22 09:02:01;;;;;;;4.58;2.72;;;;;;;21.71;100.00;98377.54;1432288;99;21192;-75
2022/06/22 09:04:46;;;;;;;6.12;2.90;;;;;;;21.82;100.00;98372.26;1428798;100;21143;-76
2022/06/22 09:07:30;;;;;;;2.52;1.98;;;;;;;22.26;100.00;98374.12;1426077;100;21848;-79
2022/06/22 09:10:32;;;;;;;1.90;1.77;;;;;;;22.94;100.00;98358.03;1419782;101;21181;-77
2022/06/22 09:13:20;;;;;;;1.50;1.40;;;;;;;23.78;100.00;98364.97;1436975;98;21084;-80
2022/06/22 09:16:22;;;;;;;5.08;2.02;;;;;;;24.53;94.69;98375.67;1461105;97;21145;-78
2022/06/22 09:19:06;;;;;;;1.75;1.65;;;;;;;25.03;88.32;98359.81;1480929;97;21177;-79
2022/06/22 09:22:12;;;;;;;1.70;1.52;;;;;;;25.23;84.52;98375.16;1480411;97;21642;-78
2022/06/22 09:24:51;;;;;;;3.52;1.85;;;;;;;24.97;80.60;98361.86;1495271;95;21570;-74
2022/06/22 09:27:28;;;;;;;2.10;1.70;;;;;;;24.64;80.29;98374.92;1503783;95;21170;-75
2022/06/22 09:30:20;;;;;;;3.42;1.72;;;;;;;24.32;83.18;98383.46;1504019;95;21111;-73
2022/06/22 09:33:29;;;;;;;3.40;1.80;;;;;;;23.98;82.29;98381.80;1505952;95;21102;-75
2022/06/22 09:36:35;;;;;;;5.78;2.30;;;;;;;23.53;81.66;98393.72;1506026;95;21066;-75
2022/06/22 09:39:27;;;;;;;3.00;1.87;;;;;;;22.94;86.21;98385.59;1503658;95;21103;-74
2022/06/22 09:42:24;;;;;;;4.55;1.90;;;;;;;22.44;89.97;98396.02;1502177;91;21186;-73
2022/06/22 09:45:26;;;;;;;6.90;2.10;;;;;;;22.08;95.42;98389.95;1503746;95;21103;-74
2022/06/22 09:48:24;;;;;;;2.00;1.82;;;;;;;21.78;98.09;98396.77;1503519;95;21091;-74
2022/06/22 09:51:22;;;;;;;2.50;2.12;;;;;;;21.50;100.00;98396.11;1503525;94;21527;-75
2022/06/22 09:57:35;;;;;;;37.20;31.73;;;;;;;21.24;100.00;98400.30;1564523;87;21045;-75
2022/06/22 10:00:20;;;;;;;11.57;6.75;;;;;;;21.12;100.00;98393.74;1628488;87;21010;-78
2022/06/22 10:03:10;;;;;;;12.05;5.17;;;;;;;21.06;100.00;98390.75;1603977;87;21085;-76
2022/06/22 10:06:01;;;;;;;46.30;37.42;;;;;;;21.02;100.00;98395.17;1649722;86;21071;-78
2022/06/22 10:08:51;;;;;;;7.12;3.00;;;;;;;21.03;100.00;98388.03;1650200;86;21026;-78
2022/06/22 10:11:49;;;;;;;6.03;2.50;;;;;;;21.15;100.00;98398.69;1611611;88;21090;-78
2022/06/22 10:14:45;;;;;;;2.25;1.95;;;;;;;21.01;100.00;98399.83;1601164;88;21562;-80
2022/06/22 10:17:40;;;;;;;7.78;2.83;;;;;;;20.80;100.00;98395.50;1603736;88;21095;-76
2022/06/22 10:20:33;;;;;;;7.78;2.65;;;;;;;20.73;100.00;98394.41;1606507;88;21047;-76
2022/06/22 10:23:30;;;;;;;4.55;2.83;;;;;;;20.90;100.00;98398.78;1603900;88;21579;-77
2022/06/22 10:26:23;;;;;;;7.08;2.60;;;;;;;21.15;100.00;98399.25;1613073;88;21046;-76
2022/06/22 10:29:15;;;;;;;7.30;2.20;;;;;;;21.42;100.00;98411.22;1621134;88;21045;-79
2022/06/22 10:32:07;;;;;;;5.28;2.35;;;;;;;21.54;100.00;98417.80;1620810;89;21102;-82
2022/06/22 10:34:55;;;;;;;3.75;1.80;;;;;;;21.35;100.00;98422.52;1617925;88;21538;-74
2022/06/22 10:37:59;;;;;;;3.62;1.70;;;;;;;21.13;100.00;98427.00;1649458;86;21099;-78
2022/06/22 10:46:42;;;;;;;12.43;5.67;;;;;;;20.59;100.00;98439.45;1645512;87;21081;-81
2022/06/22 10:49:33;;;;;;;6.75;2.90;;;;;;;20.23;100.00;98424.89;1642387;86;21064;-79
2022/06/22 10:52:26;;;;;;;5.97;1.90;;;;;;;19.97;100.00;98422.67;1645556;87;21052;-81
2022/06/22 10:55:21;;;;;;;6.37;3.33;;;;;;;19.61;100.00;98410.23;1645588;87;21087;-79
2022/06/22 10:58:03;;;;;;;7.42;3.08;;;;;;;19.08;100.00;98411.11;1641587;87;21570;-79
2022/06/22 11:01:09;;;;;;;7.25;3.50;;;;;;;18.62;100.00;98405.89;1643474;86;21045;-79
2022/06/22 11:04:10;;;;;;;24.18;21.50;;;;;;;18.28;100.00;98396.06;1641566;86;21086;-75
2022/06/22 11:07:06;;;;;;;5.10;3.20;;;;;;;17.91;100.00;98376.33;1638411;87;21557;-77
2022/06/22 11:09:59;;;;;;;5.55;2.90;;;;;;;17.58;100.00;98316.70;1655809;87;21107;-76
2022/06/22 11:13:06;;;;;;;5.95;3.00;;;;;;;17.29;100.00;98219.16;1659601;86;21056;-77
2022/06/22 11:15:55;;;;;;;14.38;8.83;;;;;;;17.04;100.00;98091.41;1689319;85;21074;-74
2022/06/22 11:18:49;;;;;;;8.35;3.47;;;;;;;16.77;100.00;98025.39;1689640;84;21109;-76
2022/06/22 11:21:30;;;;;;;;;;;;;;;16.67;100.00;97965.27;1688839;85;21051;-75
2022/06/22 11:24:09;;;;;;;7.25;3.67;;;;;;;16.69;100.00;97918.07;1684159;84;20114;-77
2022/06/22 11:33:31;;;;;;;1.75;1.60;;;;;;;17.82;100.00;97766.91;1646969;87;21092;-80
2022/06/22 11:36:33;;;;;;;;;;;;;;;18.50;100.00;97767.94;1621362;89;21083;-76
2022/06/22 11:39:29;;;;;;;3.08;1.92;;;;;;;19.35;100.00;97763.44;1619541;88;20173;-81
2022/06/22 11:42:21;;;;;;;4.65;1.75;;;;;;;20.14;100.00;97777.68;1619995;88;21058;-77
2022/06/22 11:48:22;;;;;;;3.02;2.50;;;;;;;21.09;100.00;97889.27;1620050;88;21098;-74
2022/06/22 11:51:15;;;;;;;1.52;1.42;;;;;;;21.41;100.00;97971.91;1649043;87;21040;-79
2022/06/22 11:54:09;;;;;;;3.77;1.57;;;;;;;21.64;100.00;98029.14;1649547;87;21048;-78
2022/06/22 11:56:51;;;;;;;;;;;;;;;21.86;100.00;98060.26;1650831;87;21163;-78
2022/06/22 11:59:51;;;;;;;2.98;2.62;;;;;;;22.09;100.00;98084.17;1639850;88;20199;-78
2022/06/22 12:02:32;;;;;;;3.80;1.90;;;;;;;22.21;100.00;98138.00;1636075;88;21132;-75
2022/06/22 12:05:26;;;;;;;3.22;1.30;;;;;;;22.22;100.00;98205.12;1613221;89;21049;-85
2022/06/22 12:08:10;;;;;;;3.30;1.20;;;;;;;22.24;100.00;98264.02;1613613;89;21109;-79
2022/06/22 12:11:20;;;;;;;3.90;2.17;;;;;;;22.02;100.00;98339.63;1588359;90;21042;-79
2022/06/22 12:17:38;;;;;;;2.40;1.30;;;;;;;21.38;100.00;98360.10;1541148;92;21145;-75
2022/06/22 12:20:53;;;;;;;1.80;1.55;;;;;;;20.99;100.00;98361.38;1541012;92;21066;-77
2022/06/22 12:23:43;;;;;;;3.33;1.40;;;;;;;20.49;100.00;98368.89;1541304;92;21019;-76
2022/06/22 12:26:34;;;;;;;2.58;1.80;;;;;;;20.06;100.00;98377.13;1560710;92;21055;-76
2022/06/22 12:29:24;;;;;;;5.30;1.87;;;;;;;19.69;100.00;98396.81;1499626;94;21086;-79
2022/06/22 12:31:59;;;;;;;4.42;1.98;;;;;;;19.13;100.00;98385.67;1551234;93;21091;-82
2022/06/22 12:34:33;;;;;;;12.50;2.45;;;;;;;18.46;100.00;98325.59;1498827;94;21139;-82
2022/06/22 12:37:21;;;;;;;7.28;2.02;;;;;;;17.62;100.00;98216.70;1498220;96;21117;-74
2022/06/22 12:39:58;;;;;;;6.83;1.90;;;;;;;16.87;100.00;98090.16;1499824;94;21151;-78
2022/06/22 12:42:36;;;;;;;4.67;1.50;;;;;;;16.32;100.00;97971.55;1511068;94;21182;-78
2022/06/22 12:45:14;;;;;;;4.03;1.60;;;;;;;15.99;100.00;97911.77;1520400;93;21105;-76
2022/06/22 12:48:18;;;;;;;2.70;1.67;;;;;;;15.79;100.00;97868.26;1544154;93;21040;-75
2022/06/22 12:51:21;;;;;;;6.20;1.67;;;;;;;15.66;100.00;97821.80;1544880;93;21129;-74
2022/06/22 12:54:12;;;;;;;4.28;1.95;;;;;;;15.57;100.00;97768.87;1558264;92;21080;-76
2022/06/22 12:56:50;;;;;;;3.52;2.27;;;;;;;15.63;100.00;97735.69;1485009;97;21114;-75
2022/06/22 12:59:40;;;;;;;2.60;1.60;;;;;;;15.79;100.00;97693.88;1484796;97;21092;-77